Time;durP1;ratioP1;P1;durP2;ratioP2;P2;SDS_P1;SDS_P2;PMS_P1;PMS_P2;Temp;Humidity;BMP_temperature;BMP_pressure;BME280_temperature;BME280_humidity;BME280_pressure;Samples;Min_cycle;Max_cycle;Signal;HPM_P1;HPM_P2
2023/08/08 00:00:42;;;;;;;6.47;2.70;;;;;;;14.93;100.00;100030.88;4944820;28;20243;-79
2023/08/08 00:03:09;;;;;;;14.63;4.85;;;;;;;14.95;100.00;100031.72;4861112;28;20256;-80
2023/08/08 00:05:36;;;;;;;6.65;2.67;;;;;;;15.03;100.00;100041.34;4962998;28;20244;-80
2023/08/08 00:08:03;;;;;;;5.20;1.92;;;;;;;14.93;100.00;100047.72;4961470;28;20263;-80
2023/08/08 00:10:30;;;;;;;15.27;5.32;;;;;;;14.94;100.00;100053.94;4942599;28;20308;-80
2023/08/08 00:12:57;;;;;;;6.95;2.85;;;;;;;14.97;100.00;100052.09;4953464;28;20235;-80
2023/08/08 00:15:24;;;;;;;11.07;4.10;;;;;;;15.00;100.00;100060.03;4957639;28;20255;-80
2023/08/08 00:17:51;;;;;;;4.43;1.73;;;;;;;14.97;100.00;100051.22;4962889;28;20295;-81
2023/08/08 00:20:18;;;;;;;8.80;3.58;;;;;;;15.00;100.00;100060.03;4944329;28;20328;-80
2023/08/08 00:22:45;;;;;;;7.05;3.05;;;;;;;14.96;100.00;100060.09;4968041;28;20225;-80
2023/08/08 00:25:11;;;;;;;5.93;2.83;;;;;;;14.95;100.00;100059.22;4944387;28;20261;-80
2023/08/08 00:27:42;;;;;;;5.50;2.28;;;;;;;14.86;100.00;100071.78;4938788;28;20237;-80
2023/08/08 00:30:10;;;;;;;4.35;1.85;;;;;;;14.78;100.00;100068.38;4961676;28;20308;-81
2023/08/08 00:32:37;;;;;;;5.18;2.28;;;;;;;14.77;100.00;100064.81;4956328;28;20502;-81
2023/08/08 00:35:04;;;;;;;5.63;2.10;;;;;;;14.84;100.00;100076.25;4961508;28;20225;-80
2023/08/08 00:37:31;;;;;;;9.55;3.38;;;;;;;14.79;100.00;100071.00;4951626;28;20316;-80
2023/08/08 00:39:58;;;;;;;3.60;1.67;;;;;;;14.81;100.00;100076.31;4957342;28;20305;-80
2023/08/08 00:42:25;;;;;;;8.65;3.45;;;;;;;14.75;100.00;100087.03;4938276;28;20237;-80
2023/08/08 00:44:52;;;;;;;7.32;2.67;;;;;;;14.71;100.00;100080.88;4961478;28;20324;-80
2023/08/08 00:47:18;;;;;;;5.53;2.30;;;;;;;14.75;100.00;100079.94;4951809;28;20229;-80
2023/08/08 00:49:48;;;;;;;7.30;2.83;;;;;;;14.69;100.00;100072.03;4947210;28;20309;-80
2023/08/08 00:52:15;;;;;;;5.68;2.28;;;;;;;14.64;100.00;100074.75;4959624;28;20279;-80
2023/08/08 00:54:42;;;;;;;9.75;3.67;;;;;;;14.63;100.00;100080.97;4986436;28;20239;-81
2023/08/08 00:57:09;;;;;;;4.28;1.67;;;;;;;14.62;100.00;100081.88;4953764;28;20226;-80
2023/08/08 00:59:35;;;;;;;5.68;2.08;;;;;;;14.62;100.00;100078.34;4962489;28;20244;-80
2023/08/08 01:02:02;;;;;;;5.80;2.20;;;;;;;14.49;100.00;100079.41;4946049;28;20232;-80
2023/08/08 01:04:29;;;;;;;11.65;4.47;;;;;;;14.47;100.00;100082.06;4945355;28;20259;-80
2023/08/08 01:07:38;;;;;;;6.22;2.58;;;;;;;14.23;100.00;100085.84;4945716;28;20741;-80
2023/08/08 01:10:07;;;;;;;5.40;1.92;;;;;;;13.94;100.00;100079.97;4947750;28;20241;-80
2023/08/08 01:12:47;;;;;;;6.65;2.83;;;;;;;13.81;100.00;100083.63;4936387;28;20241;-80
2023/08/08 01:15:14;;;;;;;5.47;2.20;;;;;;;13.68;100.00;100081.09;4940913;28;20369;-80
2023/08/08 01:17:42;;;;;;;6.40;2.35;;;;;;;13.62;100.00;100097.09;4961502;28;20242;-80
2023/08/08 01:20:10;;;;;;;5.65;2.17;;;;;;;13.62;100.00;100105.06;4957471;28;20257;-80
2023/08/08 01:22:48;;;;;;;9.38;3.40;;;;;;;13.66;100.00;100121.88;4938510;28;20244;-80
2023/08/08 01:25:15;;;;;;;5.38;1.92;;;;;;;13.62;100.00;100128.09;4940566;28;20296;-80
2023/08/08 01:27:43;;;;;;;10.02;3.65;;;;;;;13.55;100.00;100131.69;4942258;28;20232;-80
2023/08/08 01:30:10;;;;;;;7.20;2.75;;;;;;;13.47;100.00;100130.88;4966964;28;20249;-80
2023/08/08 01:32:37;;;;;;;6.22;2.30;;;;;;;13.47;100.00;100142.38;4950073;28;20233;-80
2023/08/08 01:35:05;;;;;;;6.13;2.30;;;;;;;13.47;100.00;100149.47;4951189;28;20265;-80
2023/08/08 01:37:36;;;;;;;10.32;3.85;;;;;;;13.43;100.00;100156.56;4956645;28;20233;-80
2023/08/08 01:40:04;;;;;;;6.97;2.50;;;;;;;13.38;100.00;100161.03;4982099;28;20245;-80
2023/08/08 01:42:32;;;;;;;14.70;4.75;;;;;;;13.33;100.00;100163.72;4943295;28;20252;-80
2023/08/08 01:44:59;;;;;;;6.75;2.35;;;;;;;13.26;100.00;100161.13;4947369;28;20254;-80
2023/08/08 01:47:26;;;;;;;12.02;3.85;;;;;;;13.30;100.00;100168.19;4949308;28;20239;-80
2023/08/08 01:49:53;;;;;;;6.90;2.58;;;;;;;13.29;100.00;100182.34;4956937;28;20224;-80
2023/08/08 01:52:19;;;;;;;12.48;4.00;;;;;;;13.16;100.00;100183.28;4973672;28;20229;-80
2023/08/08 01:54:46;;;;;;;10.18;3.60;;;;;;;13.10;100.00;100185.06;4963836;28;20232;-79
2023/08/08 01:57:13;;;;;;;24.85;8.98;;;;;;;13.08;100.00;100188.63;4948200;28;20359;-80
2023/08/08 01:59:40;;;;;;;8.45;3.03;;;;;;;12.99;100.00;100191.28;4950604;28;20308;-81
2023/08/08 02:02:06;;;;;;;5.32;1.98;;;;;;;12.92;100.00;100190.44;4950676;28;20292;-80
2023/08/08 02:04:33;;;;;;;10.95;4.00;;;;;;;12.86;100.00;100193.13;4975038;28;20312;-80
2023/08/08 02:07:00;;;;;;;7.22;2.58;;;;;;;12.78;100.00;100201.09;4947801;28;20230;-80
2023/08/08 02:09:27;;;;;;;11.30;4.00;;;;;;;12.79;100.00;100210.84;4949709;28;20305;-80
2023/08/08 02:11:54;;;;;;;6.63;2.40;;;;;;;12.63;100.00;100198.50;4954983;28;20327;-80
2023/08/08 02:14:21;;;;;;;13.43;4.60;;;;;;;12.65;100.00;100204.69;4948177;28;20232;-80
2023/08/08 02:16:47;;;;;;;9.63;3.50;;;;;;;12.65;100.00;100201.16;4952082;28;20248;-80
2023/08/08 02:19:15;;;;;;;6.53;2.33;;;;;;;12.60;100.00;100205.59;4937872;28;20269;-80
2023/08/08 02:21:41;;;;;;;7.40;2.80;;;;;;;12.44;100.00;100204.75;4938871;28;20245;-80
2023/08/08 02:24:08;;;;;;;7.43;2.63;;;;;;;12.33;100.00;100193.28;4955527;28;20353;-80
2023/08/08 02:26:35;;;;;;;6.30;2.67;;;;;;;12.42;100.00;100207.41;4956553;28;20256;-80
2023/08/08 02:29:02;;;;;;;8.90;3.63;;;;;;;12.48;100.00;100222.44;4958109;28;20237;-80
2023/08/08 02:31:28;;;;;;;9.60;3.38;;;;;;;12.52;100.00;100232.13;4958378;28;20221;-80
2023/08/08 02:33:55;;;;;;;8.98;3.17;;;;;;;12.54;100.00;100233.03;4960313;28;20248;-80
2023/08/08 02:36:22;;;;;;;8.77;3.38;;;;;;;12.55;100.00;100241.88;4958689;28;20224;-80
2023/08/08 02:38:49;;;;;;;8.57;3.20;;;;;;;12.26;100.00;100233.94;4958806;28;20308;-80
2023/08/08 02:41:16;;;;;;;8.25;2.90;;;;;;;12.10;100.00;100236.63;4959385;28;20300;-80
2023/08/08 02:43:43;;;;;;;5.78;2.28;;;;;;;11.92;100.00;100239.28;4972417;28;20237;-80
2023/08/08 02:46:09;;;;;;;5.97;2.22;;;;;;;11.88;100.00;100242.81;4962475;28;20237;-80
2023/08/08 02:48:36;;;;;;;7.68;2.97;;;;;;;11.91;100.00;100249.88;4955035;28;20360;-80
2023/08/08 02:51:03;;;;;;;6.05;2.20;;;;;;;11.88;100.00;100249.88;4944331;28;20225;-80
2023/08/08 02:53:29;;;;;;;14.80;5.00;;;;;;;11.78;100.00;100251.63;4953061;28;20225;-81
2023/08/08 02:55:56;;;;;;;6.18;2.40;;;;;;;11.67;100.00;100255.94;4962379;28;20233;-80
2023/08/08 02:58:23;;;;;;;12.98;4.72;;;;;;;11.65;100.00;100248.00;4953923;28;20225;-80
2023/08/08 03:00:49;;;;;;;8.95;3.35;;;;;;;11.51;100.00;100247.09;4958284;28;20240;-80
2023/08/08 03:03:16;;;;;;;7.32;3.00;;;;;;;11.53;100.00;100261.22;4949733;28;20225;-80
2023/08/08 03:05:44;;;;;;;8.98;3.28;;;;;;;11.58;100.00;100271.81;4954214;28;20676;-80
2023/08/08 03:08:11;;;;;;;6.80;2.72;;;;;;;11.58;100.00;100279.78;4957486;28;20235;-80
2023/08/08 03:10:38;;;;;;;7.78;3.10;;;;;;;11.54;100.00;100278.88;4937974;28;20241;-80
2023/08/08 03:13:04;;;;;;;8.55;3.17;;;;;;;11.50;100.00;100278.00;4968560;28;20236;-80
2023/08/08 03:15:31;;;;;;;11.55;3.97;;;;;;;11.66;100.00;100291.28;4955491;28;20235;-80
2023/08/08 03:17:58;;;;;;;7.00;3.22;;;;;;;11.54;100.00;100287.72;4949104;28;20239;-80
2023/08/08 03:20:25;;;;;;;10.02;3.80;;;;;;;11.47;100.00;100279.75;4935109;28;20226;-80
2023/08/08 03:22:51;;;;;;;10.52;3.55;;;;;;;11.53;100.00;100287.72;4951324;28;20782;-80
2023/08/08 03:25:18;;;;;;;30.80;3.97;;;;;;;11.45;100.00;100281.50;4951760;28;20237;-80
2023/08/08 03:27:45;;;;;;;8.35;3.25;;;;;;;11.34;100.00;100277.94;4948874;28;20237;-80
2023/08/08 03:30:12;;;;;;;6.72;2.60;;;;;;;11.40;100.00;100281.50;4937243;28;20229;-80
2023/08/08 03:32:40;;;;;;;10.18;4.05;;;;;;;11.40;100.00;100294.72;4935114;28;20225;-80
2023/08/08 03:35:09;;;;;;;5.10;2.03;;;;;;;11.39;100.00;100294.72;4960487;28;20250;-80
2023/08/08 03:37:36;;;;;;;6.28;2.38;;;;;;;11.38;100.00;100295.59;4947665;28;20472;-80
2023/08/08 03:40:03;;;;;;;6.70;2.67;;;;;;;11.36;100.00;100302.66;4985273;28;20225;-80
2023/08/08 03:42:30;;;;;;;10.57;3.85;;;;;;;11.27;100.00;100292.03;4959426;28;20300;-80
2023/08/08 03:44:56;;;;;;;6.05;2.53;;;;;;;11.22;100.00;100292.91;4956423;28;20230;-80
2023/08/08 03:47:23;;;;;;;10.23;3.60;;;;;;;11.12;100.00;100287.56;4954123;28;20225;-80
2023/08/08 03:49:50;;;;;;;5.07;1.95;;;;;;;11.07;100.00;100284.00;4950712;28;20231;-80
2023/08/08 03:52:17;;;;;;;8.65;3.80;;;;;;;10.91;100.00;100275.13;4937617;28;20233;-80
2023/08/08 03:54:44;;;;;;;8.27;2.90;;;;;;;10.86;100.00;100275.09;4960541;28;20243;-80
2023/08/08 03:57:11;;;;;;;6.30;2.50;;;;;;;10.92;100.00;100289.22;4947335;28;20225;-80
2023/08/08 03:59:37;;;;;;;7.97;3.13;;;;;;;10.99;100.00;100291.03;4957860;28;20705;-80
2023/08/08 04:02:04;;;;;;;6.63;2.58;;;;;;;10.99;100.00;100291.03;4942113;28;20237;-80
2023/08/08 04:04:32;;;;;;;13.35;5.15;;;;;;;11.05;100.00;100302.53;4942523;28;20221;-81
2023/08/08 04:06:59;;;;;;;7.10;2.88;;;;;;;11.03;100.00;100306.94;4951728;28;20229;-81
2023/08/08 04:09:27;;;;;;;11.95;4.20;;;;;;;11.00;100.00;100309.56;4948535;28;20225;-81
2023/08/08 04:11:54;;;;;;;7.47;3.17;;;;;;;10.98;100.00;100311.31;4962518;28;20233;-81
2023/08/08 04:14:21;;;;;;;7.45;2.72;;;;;;;10.95;100.00;100313.06;4954891;28;20234;-81
2023/08/08 04:16:48;;;;;;;7.38;3.15;;;;;;;11.04;100.00;100316.63;4956337;28;20250;-81
2023/08/08 04:19:14;;;;;;;5.93;2.33;;;;;;;10.90;100.00;100313.03;4936948;28;20230;-80
2023/08/08 04:21:41;;;;;;;7.80;3.03;;;;;;;10.97;100.00;100327.19;4947138;28;20242;-81
2023/08/08 04:24:08;;;;;;;3.97;1.60;;;;;;;10.97;100.00;100324.53;4959105;28;20232;-81
2023/08/08 04:26:34;;;;;;;7.00;2.90;;;;;;;10.93;100.00;100334.22;4949342;28;20353;-81
2023/08/08 04:29:02;;;;;;;6.13;2.47;;;;;;;10.94;100.00;100338.63;4959434;28;20251;-81
2023/08/08 04:31:29;;;;;;;13.52;4.82;;;;;;;11.03;100.00;100340.44;4955117;28;20232;-81
2023/08/08 04:33:59;;;;;;;7.07;2.85;;;;;;;11.03;100.00;100351.03;4960053;28;20237;-80
2023/08/08 04:36:28;;;;;;;12.20;4.35;;;;;;;11.04;100.00;100358.97;4947531;28;20237;-81
2023/08/08 04:38:54;;;;;;;6.40;2.50;;;;;;;11.08;100.00;100367.81;4954677;28;20244;-81
2023/08/08 04:41:21;;;;;;;9.82;3.80;;;;;;;11.07;100.00;100372.22;4936867;28;20717;-81
2023/08/08 04:43:48;;;;;;;7.85;3.50;;;;;;;11.11;100.00;100374.00;4942683;28;20228;-81
2023/08/08 04:46:15;;;;;;;7.70;3.00;;;;;;;11.14;100.00;100381.97;4946251;28;20243;-81
2023/08/08 04:48:42;;;;;;;8.77;3.80;;;;;;;11.08;100.00;100384.59;4937428;28;20316;-81
2023/08/08 04:51:09;;;;;;;8.65;3.58;;;;;;;11.06;100.00;100380.16;4952016;28;20222;-81
2023/08/08 04:53:35;;;;;;;6.47;2.58;;;;;;;11.09;100.00;100382.81;4959751;28;20260;-81
2023/08/08 04:56:02;;;;;;;8.27;2.97;;;;;;;11.11;100.00;100384.59;4952337;28;20233;-81
2023/08/08 04:58:29;;;;;;;14.50;5.30;;;;;;;11.18;100.00;100394.34;4954548;28;20225;-82
2023/08/08 05:00:56;;;;;;;6.15;2.55;;;;;;;11.23;100.00;100397.03;4956388;28;20226;-81
2023/08/08 05:03:23;;;;;;;13.60;5.00;;;;;;;11.27;100.00;100406.75;4943491;28;20229;-80
2023/08/08 05:05:50;;;;;;;7.13;3.17;;;;;;;11.32;100.00;100414.72;4949782;28;20256;-80
2023/08/08 05:08:17;;;;;;;8.43;3.10;;;;;;;11.37;100.00;100413.88;4955196;28;20251;-79
2023/08/08 05:10:43;;;;;;;9.20;3.55;;;;;;;11.43;100.00;100415.66;4934578;28;20241;-79
2023/08/08 05:13:10;;;;;;;4.22;2.08;;;;;;;11.50;100.00;100425.41;4948176;28;20227;-79
2023/08/08 05:15:37;;;;;;;6.75;3.05;;;;;;;11.56;100.00;100425.44;4937978;28;20241;-79
2023/08/08 05:18:04;;;;;;;6.22;2.63;;;;;;;11.62;100.00;100433.41;4956583;28;20228;-79
2023/08/08 05:20:31;;;;;;;13.55;4.78;;;;;;;11.68;100.00;100446.69;4946692;28;20222;-80
2023/08/08 05:22:58;;;;;;;7.75;3.10;;;;;;;11.77;100.00;100454.75;4954586;28;20707;-79
2023/08/08 05:25:25;;;;;;;11.23;4.63;;;;;;;11.86;100.00;100467.13;4959500;28;20228;-79
2023/08/08 05:27:53;;;;;;;6.57;3.15;;;;;;;11.93;100.00;100465.41;4964315;28;20315;-79
2023/08/08 05:30:20;;;;;;;10.45;4.70;;;;;;;12.01;100.00;100467.19;4947759;28;20229;-80
2023/08/08 05:32:47;;;;;;;7.38;3.10;;;;;;;12.12;100.00;100480.50;4951043;28;20284;-80
2023/08/08 05:35:13;;;;;;;6.07;2.58;;;;;;;12.20;100.00;100486.72;4950235;28;20229;-79
2023/08/08 05:37:40;;;;;;;8.77;3.50;;;;;;;12.28;100.00;100484.06;4945997;28;20241;-79
2023/08/08 05:40:07;;;;;;;7.47;3.08;;;;;;;12.37;100.00;100492.94;4947745;28;20224;-79
2023/08/08 05:42:34;;;;;;;8.98;3.38;;;;;;;12.50;100.00;100499.16;4953781;28;20258;-79
2023/08/08 05:45:01;;;;;;;7.70;3.13;;;;;;;12.60;100.00;100514.22;4951617;28;20234;-79
2023/08/08 05:47:28;;;;;;;9.63;3.97;;;;;;;12.59;100.00;100512.44;4971552;28;20251;-79
2023/08/08 05:49:55;;;;;;;7.78;3.05;;;;;;;12.75;100.00;100522.19;4956470;28;20799;-79
2023/08/08 05:52:22;;;;;;;11.25;4.20;;;;;;;12.78;100.00;100523.97;4956667;28;20229;-79
2023/08/08 05:54:48;;;;;;;7.28;3.10;;;;;;;12.94;100.00;100540.81;4955985;28;20233;-80
2023/08/08 05:57:16;;;;;;;8.15;3.25;;;;;;;13.06;100.00;100540.84;4950646;28;20249;-80
2023/08/08 05:59:44;;;;;;;5.50;2.28;;;;;;;13.16;100.00;100547.94;4937817;28;20245;-80
2023/08/08 06:02:11;;;;;;;5.78;2.38;;;;;;;13.29;100.00;100549.72;4952907;28;20229;-80
2023/08/08 06:04:38;;;;;;;6.88;2.92;;;;;;;13.43;100.00;100563.00;4948845;28;20385;-80
2023/08/08 06:07:05;;;;;;;5.45;2.10;;;;;;;13.57;100.00;100566.53;4962849;28;20583;-80
2023/08/08 06:09:37;;;;;;;7.28;3.08;;;;;;;13.70;100.00;100572.72;4955634;28;22724;-80
2023/08/08 06:12:04;;;;;;;3.78;1.88;;;;;;;13.80;100.00;100568.28;4953893;28;20250;-80
2023/08/08 06:14:31;;;;;;;11.25;4.38;;;;;;;13.93;100.00;100562.94;4949376;28;20233;-80
2023/08/08 06:16:58;;;;;;;4.18;1.75;;;;;;;14.03;100.00;100570.00;4956060;28;20233;-80
2023/08/08 06:19:24;;;;;;;8.30;3.35;;;;;;;14.20;100.00;100572.59;4944747;28;20229;-80
2023/08/08 06:21:51;;;;;;;7.05;3.15;;;;;;;14.25;100.00;100564.59;4955643;28;20665;-80
2023/08/08 06:24:18;;;;;;;7.78;2.67;;;;;;;14.43;100.00;100558.38;4938329;28;20235;-80
2023/08/08 06:26:45;;;;;;;5.75;2.33;;;;;;;14.57;100.00;100557.41;4945910;28;20248;-80
2023/08/08 06:29:13;;;;;;;5.90;2.20;;;;;;;14.64;100.00;100552.94;4942258;28;20254;-80
2023/08/08 06:31:41;;;;;;;5.45;2.17;;;;;;;14.75;100.00;100553.75;4942205;28;20241;-80
2023/08/08 06:34:08;;;;;;;6.70;2.95;;;;;;;14.90;100.00;100545.66;4962322;28;20224;-80
2023/08/08 06:36:34;;;;;;;5.70;2.47;;;;;;;14.95;100.00;100545.63;4964942;28;20248;-80
2023/08/08 06:39:01;;;;;;;4.75;2.00;;;;;;;15.14;100.00;100544.59;4952826;28;20230;-80
2023/08/08 06:41:28;;;;;;;11.25;4.03;;;;;;;15.23;100.00;100543.66;4946718;28;20234;-80
2023/08/08 06:43:55;;;;;;;5.38;1.92;;;;;;;15.31;100.00;100541.81;4960079;28;20590;-80
2023/08/08 06:46:22;;;;;;;10.02;3.90;;;;;;;15.43;100.00;100539.03;4942411;28;20229;-80
2023/08/08 06:48:50;;;;;;;7.75;3.20;;;;;;;15.53;100.00;100531.84;4945907;28;20696;-80
2023/08/08 06:51:17;;;;;;;5.97;2.13;;;;;;;15.70;100.00;100521.06;4951390;28;20226;-80
2023/08/08 06:53:43;;;;;;;6.88;2.65;;;;;;;15.80;100.00;100515.63;4964153;28;20241;-80
2023/08/08 06:56:10;;;;;;;5.57;2.42;;;;;;;15.89;100.00;100509.28;4960538;28;20753;-80
2023/08/08 06:58:37;;;;;;;5.97;2.42;;;;;;;16.03;100.00;100507.34;4955978;28;20244;-80
2023/08/08 07:01:04;;;;;;;7.20;2.72;;;;;;;16.10;100.00;100495.69;4935648;28;20280;-80
2023/08/08 07:03:31;;;;;;;13.48;4.80;;;;;;;16.19;100.00;100484.03;4945566;28;20237;-80
2023/08/08 07:05:57;;;;;;;6.90;2.50;;;;;;;16.32;100.00;100483.84;4963612;28;20259;-78
2023/08/08 07:08:25;;;;;;;12.05;4.50;;;;;;;16.44;100.00;100481.91;4933503;28;20229;-80
2023/08/08 07:10:51;;;;;;;12.68;5.03;;;;;;;16.53;100.00;100471.09;4966759;28;20233;-78
2023/08/08 07:13:21;;;;;;;10.60;4.18;;;;;;;16.60;100.00;100456.75;4946852;28;20293;-78
2023/08/08 07:15:48;;;;;;;7.15;2.85;;;;;;;16.74;100.00;100452.13;4948206;28;20229;-78
2023/08/08 07:18:15;;;;;;;4.53;1.90;;;;;;;16.82;100.00;100444.84;4948277;28;20291;-80
2023/08/08 07:20:42;;;;;;;7.50;2.97;;;;;;;17.05;100.00;100431.16;4959074;28;20237;-80
2023/08/08 07:23:08;;;;;;;5.20;2.13;;;;;;;16.97;100.00;100402.81;4949268;28;20232;-80
2023/08/08 07:25:35;;;;;;;4.80;2.08;;;;;;;17.09;100.00;100406.13;4940273;28;20432;-80
2023/08/08 07:28:02;;;;;;;4.47;1.92;;;;;;;17.23;100.00;100401.41;4978290;28;20283;-80
2023/08/08 07:30:29;;;;;;;11.27;4.18;;;;;;;17.41;100.00;100400.19;4945470;28;20304;-79
2023/08/08 07:32:55;;;;;;;5.10;2.17;;;;;;;17.49;100.00;100379.53;4949924;28;20238;-80
2023/08/08 07:35:22;;;;;;;8.25;3.08;;;;;;;17.81;100.00;100381.56;4939024;28;20308;-80
2023/08/08 07:37:49;;;;;;;4.60;1.98;;;;;;;17.99;100.00;100355.31;4953865;28;20224;-80
2023/08/08 07:40:20;;;;;;;6.93;2.72;;;;;;;18.02;100.00;100250.91;4973957;28;20702;-82
2023/08/08 07:42:47;;;;;;;4.45;1.95;;;;;;;17.79;100.00;100137.31;4947528;28;20240;-80
2023/08/08 07:45:15;;;;;;;5.55;2.72;;;;;;;17.85;100.00;100088.13;4964226;28;20225;-80
2023/08/08 07:47:41;;;;;;;7.65;3.38;;;;;;;18.00;100.00;100090.38;4946230;28;20257;-80
2023/08/08 07:50:08;;;;;;;5.93;2.83;;;;;;;18.04;100.00;100026.97;4946092;28;20629;-80
2023/08/08 07:52:36;;;;;;;10.23;4.25;;;;;;;18.15;100.00;100008.81;4930905;28;22278;-79
2023/08/08 07:55:03;;;;;;;5.85;2.85;;;;;;;18.35;100.00;100013.63;4960828;28;20243;-81
2023/08/08 07:57:31;;;;;;;10.52;3.92;;;;;;;18.42;100.00;99985.75;4946582;28;20224;-81
2023/08/08 07:59:58;;;;;;;5.43;2.33;;;;;;;18.15;100.00;99923.19;4940373;28;20229;-81
2023/08/08 08:02:25;;;;;;;9.68;3.97;;;;;;;18.40;100.00;99918.84;4960849;28;20284;-79
2023/08/08 08:04:52;;;;;;;7.70;3.55;;;;;;;18.50;100.00;99900.69;4958143;28;20240;-80
2023/08/08 08:07:18;;;;;;;7.03;2.63;;;;;;;18.89;100.00;99887.84;4947205;28;20225;-80
2023/08/08 08:09:45;;;;;;;6.30;2.80;;;;;;;19.12;100.00;99879.91;4941129;28;20305;-81
2023/08/08 08:12:12;;;;;;;9.00;3.85;;;;;;;18.99;100.00;99790.13;4944927;28;20225;-81
2023/08/08 08:14:39;;;;;;;5.38;2.50;;;;;;;18.88;100.00;99733.38;4950659;28;20239;-81
2023/08/08 08:17:05;;;;;;;5.97;2.50;;;;;;;18.67;100.00;99627.91;4961274;28;20262;-81
2023/08/08 08:19:32;;;;;;;6.30;2.60;;;;;;;18.75;100.00;99601.69;4967771;28;20225;-80
2023/08/08 08:21:59;;;;;;;5.35;2.22;;;;;;;18.78;100.00;99604.25;4958901;28;20229;-80
2023/08/08 08:24:26;;;;;;;8.10;3.38;;;;;;;19.06;100.00;99687.16;4942068;28;20728;-80
2023/08/08 08:26:53;;;;;;;6.00;2.40;;;;;;;19.16;100.00;99576.00;4962429;28;20236;-81
2023/08/08 08:29:19;;;;;;;13.05;4.82;;;;;;;19.06;100.00;99552.28;4956128;28;20229;-81
2023/08/08 08:31:46;;;;;;;5.60;2.25;;;;;;;18.99;100.00;99510.59;4949655;28;20232;-81
2023/08/08 08:34:13;;;;;;;5.63;2.60;;;;;;;19.24;100.00;99497.06;4965459;28;20232;-80
2023/08/08 08:36:40;;;;;;;3.58;1.77;;;;;;;19.28;100.00;99485.28;4948100;28;20237;-80
2023/08/08 08:39:07;;;;;;;3.90;1.90;;;;;;;19.19;100.00;99511.53;4963761;28;20221;-80
2023/08/08 08:41:35;;;;;;;10.38;3.97;;;;;;;19.04;100.00;99390.72;4951542;28;20288;-80
2023/08/08 08:44:03;;;;;;;4.15;1.80;;;;;;;19.21;100.00;99430.19;4956050;28;20232;-80
2023/08/08 08:46:30;;;;;;;8.02;3.35;;;;;;;19.28;100.00;99429.88;4960189;28;20775;-80
2023/08/08 08:48:59;;;;;;;7.50;3.38;;;;;;;19.28;100.00;99370.03;4964474;28;20225;-80
2023/08/08 08:51:27;;;;;;;7.45;2.97;;;;;;;19.49;100.00;99410.19;4948419;28;20293;-80
2023/08/08 08:53:53;;;;;;;4.80;2.08;;;;;;;19.38;100.00;99266.81;4957002;28;20248;-81
2023/08/08 08:56:20;;;;;;;8.02;3.33;;;;;;;19.29;100.00;99198.41;4942009;28;20230;-81
2023/08/08 08:58:47;;;;;;;4.25;1.92;;;;;;;19.66;100.00;99283.44;4967202;28;20256;-85
2023/08/08 09:01:15;;;;;;;3.83;1.70;;;;;;;19.80;100.00;99285.50;4958305;28;20240;-80
2023/08/08 09:03:43;;;;;;;3.35;1.50;;;;;;;19.77;100.00;99223.94;4958043;28;20251;-83
2023/08/08 09:06:11;;;;;;;3.70;1.60;;;;;;;19.94;100.00;99226.69;4968747;28;20228;-82
2023/08/08 09:08:38;;;;;;;6.47;2.65;;;;;;;19.75;100.00;99191.81;4954835;28;20237;-80
2023/08/08 09:11:05;;;;;;;3.60;1.60;;;;;;;19.91;100.00;99212.53;4992830;28;20224;-80
2023/08/08 09:13:38;;;;;;;9.68;4.07;;;;;;;20.13;100.00;99234.69;4958823;28;20237;-82
2023/08/08 09:16:07;;;;;;;4.57;1.95;;;;;;;20.12;100.00;99137.22;4967334;28;20224;-80
2023/08/08 09:18:38;;;;;;;6.35;2.35;;;;;;;20.10;100.00;99108.72;4964917;28;20221;-81
2023/08/08 09:21:05;;;;;;;5.55;2.25;;;;;;;20.17;100.00;99141.47;4968507;28;20233;-81
2023/08/08 09:23:32;;;;;;;31.70;8.18;;;;;;;20.39;100.00;99169.88;4953054;28;20254;-81
2023/08/08 09:25:59;;;;;;;2.67;1.40;;;;;;;20.54;100.00;99170.03;4945149;28;20233;-81
2023/08/08 09:28:25;;;;;;;29.48;7.60;;;;;;;20.65;100.00;99101.38;4942801;28;20233;-80
2023/08/08 09:30:53;;;;;;;5.40;2.42;;;;;;;20.83;100.00;99117.47;4979402;28;20239;-81
2023/08/08 09:33:20;;;;;;;29.50;8.68;;;;;;;20.94;100.00;99123.16;4956829;28;20236;-81
2023/08/08 09:35:47;;;;;;;5.22;2.22;;;;;;;20.94;100.00;99062.22;4959946;28;20240;-81
2023/08/08 09:38:14;;;;;;;3.72;1.77;;;;;;;21.15;100.00;99118.41;4954542;28;20225;-81
2023/08/08 09:40:41;;;;;;;4.03;1.92;;;;;;;21.24;100.00;99067.72;4949800;28;20230;-81
2023/08/08 09:43:08;;;;;;;6.05;2.70;;;;;;;21.20;100.00;98990.84;4975786;28;20229;-81
2023/08/08 09:45:41;;;;;;;6.13;2.25;;;;;;;21.14;100.00;98976.91;4956379;28;20333;-81
2023/08/08 09:48:08;;;;;;;5.80;2.42;;;;;;;21.22;100.00;98988.97;4948459;28;20339;-81
2023/08/08 09:50:35;;;;;;;5.55;2.13;;;;;;;21.37;100.00;98992.59;4963531;28;20253;-81
2023/08/08 09:53:02;;;;;;;3.75;1.70;;;;;;;21.42;100.00;98962.75;4945234;28;20284;-81
2023/08/08 09:55:33;;;;;;;32.15;8.70;;;;;;;21.43;100.00;98887.38;4954911;28;20234;-81
2023/08/08 09:58:00;;;;;;;3.05;1.50;;;;;;;21.55;100.00;98902.78;4954494;28;20228;-80
2023/08/08 10:00:28;;;;;;;24.65;6.55;;;;;;;21.43;100.00;98863.16;4957084;28;20613;-81
2023/08/08 10:02:55;;;;;;;4.80;2.10;;;;;;;21.09;100.00;98799.78;4954874;28;20260;-80
2023/08/08 10:05:22;;;;;;;27.27;7.22;;;;;;;21.47;100.00;98836.94;4941022;28;20455;-80
2023/08/08 10:07:49;;;;;;;5.00;2.22;;;;;;;21.49;100.00;98792.00;4966462;28;20235;-81
2023/08/08 10:10:18;;;;;;;4.78;2.05;;;;;;;21.69;100.00;98832.00;4948309;28;20224;-82
2023/08/08 10:12:46;;;;;;;4.30;1.83;;;;;;;21.62;100.00;98734.66;4959433;28;20252;-82
2023/08/08 10:15:13;;;;;;;5.47;2.47;;;;;;;21.93;100.00;98738.09;4960594;28;20333;-82
2023/08/08 10:17:41;;;;;;;3.88;1.73;;;;;;;22.05;100.00;98715.81;4950302;28;20240;-81
2023/08/08 10:20:11;;;;;;;4.80;2.05;;;;;;;22.35;100.00;98686.03;4955445;28;20234;-81
2023/08/08 10:22:46;;;;;;;2.88;1.27;;;;;;;22.21;100.00;98589.16;4958359;28;20243;-83
2023/08/08 10:25:23;;;;;;;4.80;2.03;;;;;;;22.00;100.00;98507.97;4962594;28;20227;-80
2023/08/08 10:27:49;;;;;;;3.97;1.88;;;;;;;22.28;100.00;98529.41;4945021;28;20227;-81
2023/08/08 10:30:16;;;;;;;3.55;1.70;;;;;;;22.52;100.00;98577.16;4956331;28;20232;-80
2023/08/08 10:32:46;;;;;;;7.40;3.08;;;;;;;22.52;100.00;98604.06;4955052;28;20247;-80
2023/08/08 10:35:13;;;;;;;4.75;2.13;;;;;;;22.59;100.00;98486.84;4961160;28;20228;-80
2023/08/08 10:37:41;;;;;;;3.95;1.73;;;;;;;22.90;100.00;98539.44;4953684;28;20240;-80
2023/08/08 10:40:11;;;;;;;3.67;1.90;;;;;;;23.01;100.00;98514.41;4967217;28;20602;-80
2023/08/08 10:42:42;;;;;;;6.53;3.22;;;;;;;23.03;100.00;98645.44;4955261;28;20236;-81
2023/08/08 10:45:13;;;;;;;7.53;3.28;;;;;;;22.82;100.00;98540.00;4961164;28;20235;-82
2023/08/08 10:47:40;;;;;;;5.47;2.47;;;;;;;22.26;100.00;98430.84;4944923;28;20237;-80
2023/08/08 10:50:15;;;;;;;4.55;2.10;;;;;;;22.39;100.00;98472.09;4945749;28;20289;-79
2023/08/08 10:52:54;;;;;;;4.18;1.88;;;;;;;22.82;100.00;98642.41;4955826;28;20234;-80
2023/08/08 10:55:33;;;;;;;8.93;3.10;;;;;;;22.83;100.00;98617.19;4947389;28;20280;-79
2023/08/08 10:58:04;;;;;;;5.88;2.45;;;;;;;22.45;100.00;98441.19;4953743;28;20231;-79
2023/08/08 11:00:34;;;;;;;8.73;3.58;;;;;;;23.10;100.00;98594.63;4967550;28;20265;-79
2023/08/08 11:03:04;;;;;;;5.00;2.25;;;;;;;23.37;100.00;98634.94;4964022;28;20224;-79
2023/08/08 11:05:32;;;;;;;8.75;3.75;;;;;;;23.37;100.00;98606.13;4948345;28;20228;-79
2023/08/08 11:08:04;;;;;;;3.50;1.60;;;;;;;23.32;100.00;98481.53;4958429;28;20228;-80
2023/08/08 11:10:40;;;;;;;8.20;3.20;;;;;;;23.13;100.00;98406.53;4947352;28;20649;-80
2023/08/08 11:13:08;;;;;;;4.72;1.98;;;;;;;23.31;100.00;98396.22;4959341;28;20239;-80
2023/08/08 11:15:36;;;;;;;5.30;2.25;;;;;;;23.56;100.00;98428.53;4954494;28;20807;-80
2023/08/08 11:18:05;;;;;;;4.80;2.28;;;;;;;23.26;100.00;98279.75;4953606;28;20224;-80
2023/08/08 11:20:33;;;;;;;6.85;2.88;;;;;;;23.12;100.00;98261.06;4984750;28;20227;-80